sensor_id;sensor_type;location;lat;lon;timestamp;P1;durP1;ratioP1;P2;durP2;ratioP2
22260;SDS011;11299;43.202;27.920;2023-04-02T00:08:56;1.25;;;0.95;;
22260;SDS011;11299;43.202;27.920;2023-04-02T00:11:31;1.38;;;0.88;;
22260;SDS011;11299;43.202;27.920;2023-04-02T00:14:00;3.80;;;1.13;;
22260;SDS011;11299;43.202;27.920;2023-04-02T00:16:27;1.88;;;1.20;;
22260;SDS011;11299;43.202;27.920;2023-04-02T00:18:54;1.92;;;1.40;;
22260;SDS011;11299;43.202;27.920;2023-04-02T00:21:28;2.47;;;1.70;;
22260;SDS011;11299;43.202;27.920;2023-04-02T00:23:58;4.30;;;1.92;;
22260;SDS011;11299;43.202;27.920;2023-04-02T00:26:29;2.75;;;1.92;;
22260;SDS011;11299;43.202;27.920;2023-04-02T00:28:58;3.75;;;2.03;;
22260;SDS011;11299;43.202;27.920;2023-04-02T00:31:25;3.17;;;2.38;;
22260;SDS011;11299;43.202;27.920;2023-04-02T00:33:51;4.90;;;2.20;;
22260;SDS011;11299;43.202;27.920;2023-04-02T00:36:18;3.40;;;2.00;;
22260;SDS011;11299;43.202;27.920;2023-04-02T00:38:46;5.10;;;2.80;;
22260;SDS011;11299;43.202;27.920;2023-04-02T00:41:16;4.85;;;3.05;;
22260;SDS011;11299;43.202;27.920;2023-04-02T00:43:46;4.35;;;2.83;;
22260;SDS011;11299;43.202;27.920;2023-04-02T00:46:16;3.90;;;2.85;;
22260;SDS011;11299;43.202;27.920;2023-04-02T00:51:18;3.80;;;2.00;;
22260;SDS011;11299;43.202;27.920;2023-04-02T00:53:48;3.15;;;2.28;;
22260;SDS011;11299;43.202;27.920;2023-04-02T00:56:19;4.07;;;2.95;;
22260;SDS011;11299;43.202;27.920;2023-04-02T00:58:51;4.80;;;2.50;;
22260;SDS011;11299;43.202;27.920;2023-04-02T01:01:21;3.42;;;2.08;;
22260;SDS011;11299;43.202;27.920;2023-04-02T01:03:52;5.25;;;1.80;;
22260;SDS011;11299;43.202;27.920;2023-04-02T01:06:23;1.60;;;1.50;;
22260;SDS011;11299;43.202;27.920;2023-04-02T01:12:29;4.28;;;2.13;;
22260;SDS011;11299;43.202;27.920;2023-04-02T01:15:16;4.72;;;1.70;;
22260;SDS011;11299;43.202;27.920;2023-04-02T01:20:37;2.35;;;1.50;;
22260;SDS011;11299;43.202;27.920;2023-04-02T01:31:21;1.90;;;1.48;;
22260;SDS011;11299;43.202;27.920;2023-04-02T01:33:47;1.50;;;1.30;;
22260;SDS011;11299;43.202;27.920;2023-04-02T01:36:34;2.05;;;1.77;;
22260;SDS011;11299;43.202;27.920;2023-04-02T01:44:53;2.05;;;1.42;;
22260;SDS011;11299;43.202;27.920;2023-04-02T01:47:26;2.17;;;1.50;;
22260;SDS011;11299;43.202;27.920;2023-04-02T01:50:17;1.95;;;1.40;;
22260;SDS011;11299;43.202;27.920;2023-04-02T01:52:42;2.33;;;1.77;;
22260;SDS011;11299;43.202;27.920;2023-04-02T01:55:11;2.00;;;1.55;;
22260;SDS011;11299;43.202;27.920;2023-04-02T01:57:40;1.98;;;1.60;;
22260;SDS011;11299;43.202;27.920;2023-04-02T02:00:07;1.27;;;1.17;;
22260;SDS011;11299;43.202;27.920;2023-04-02T02:02:39;3.28;;;1.58;;
22260;SDS011;11299;43.202;27.920;2023-04-02T02:05:12;3.95;;;1.70;;
22260;SDS011;11299;43.202;27.920;2023-04-02T02:07:40;2.88;;;2.05;;
22260;SDS011;11299;43.202;27.920;2023-04-02T02:10:06;2.20;;;1.70;;
22260;SDS011;11299;43.202;27.920;2023-04-02T02:12:40;3.13;;;1.40;;
22260;SDS011;11299;43.202;27.920;2023-04-02T02:15:15;2.33;;;1.88;;
22260;SDS011;11299;43.202;27.920;2023-04-02T02:17:42;2.60;;;1.92;;
22260;SDS011;11299;43.202;27.920;2023-04-02T02:20:09;2.72;;;1.60;;
22260;SDS011;11299;43.202;27.920;2023-04-02T02:22:36;2.95;;;1.50;;
22260;SDS011;11299;43.202;27.920;2023-04-02T02:25:09;2.03;;;1.70;;
22260;SDS011;11299;43.202;27.920;2023-04-02T02:30:29;2.22;;;1.92;;
22260;SDS011;11299;43.202;27.920;2023-04-02T02:35:53;3.97;;;1.77;;
22260;SDS011;11299;43.202;27.920;2023-04-02T02:43:47;2.40;;;2.15;;
22260;SDS011;11299;43.202;27.920;2023-04-02T02:46:26;5.13;;;2.28;;
22260;SDS011;11299;43.202;27.920;2023-04-02T02:48:54;5.15;;;3.55;;
22260;SDS011;11299;43.202;27.920;2023-04-02T02:51:25;2.63;;;2.28;;
22260;SDS011;11299;43.202;27.920;2023-04-02T02:53:55;2.35;;;2.08;;
22260;SDS011;11299;43.202;27.920;2023-04-02T02:56:27;2.88;;;2.10;;
22260;SDS011;11299;43.202;27.920;2023-04-02T02:58:55;3.25;;;1.70;;
22260;SDS011;11299;43.202;27.920;2023-04-02T03:01:20;3.10;;;2.20;;
22260;SDS011;11299;43.202;27.920;2023-04-02T03:03:46;2.15;;;1.95;;
22260;SDS011;11299;43.202;27.920;2023-04-02T03:06:16;3.25;;;1.60;;
22260;SDS011;11299;43.202;27.920;2023-04-02T03:08:51;3.45;;;2.30;;
22260;SDS011;11299;43.202;27.920;2023-04-02T03:11:25;3.78;;;2.00;;
22260;SDS011;11299;43.202;27.920;2023-04-02T03:14:14;3.15;;;2.22;;
22260;SDS011;11299;43.202;27.920;2023-04-02T03:18:01;3.20;;;2.17;;
22260;SDS011;11299;43.202;27.920;2023-04-02T03:20:05;3.40;;;2.70;;
22260;SDS011;11299;43.202;27.920;2023-04-02T03:27:52;4.65;;;2.80;;
22260;SDS011;11299;43.202;27.920;2023-04-02T03:30:28;5.43;;;3.30;;
22260;SDS011;11299;43.202;27.920;2023-04-02T03:33:15;3.45;;;3.15;;
22260;SDS011;11299;43.202;27.920;2023-04-02T03:35:45;6.68;;;3.30;;
22260;SDS011;11299;43.202;27.920;2023-04-02T03:38:19;6.38;;;3.40;;
22260;SDS011;11299;43.202;27.920;2023-04-02T03:41:32;5.03;;;3.45;;
22260;SDS011;11299;43.202;27.920;2023-04-02T03:43:42;5.05;;;3.30;;
22260;SDS011;11299;43.202;27.920;2023-04-02T03:48:52;3.60;;;3.00;;
22260;SDS011;11299;43.202;27.920;2023-04-02T03:51:27;3.30;;;2.72;;
22260;SDS011;11299;43.202;27.920;2023-04-02T03:54:00;4.82;;;4.28;;
22260;SDS011;11299;43.202;27.920;2023-04-02T03:58:54;12.60;;;11.23;;
22260;SDS011;11299;43.202;27.920;2023-04-02T04:01:31;17.45;;;13.40;;
22260;SDS011;11299;43.202;27.920;2023-04-02T04:04:06;12.88;;;10.27;;
22260;SDS011;11299;43.202;27.920;2023-04-02T04:06:40;12.02;;;6.97;;
22260;SDS011;11299;43.202;27.920;2023-04-02T04:11:44;5.70;;;4.18;;
22260;SDS011;11299;43.202;27.920;2023-04-02T04:14:16;3.95;;;3.08;;
22260;SDS011;11299;43.202;27.920;2023-04-02T04:17:02;4.18;;;3.78;;
22260;SDS011;11299;43.202;27.920;2023-04-02T04:19:43;4.93;;;4.03;;
22260;SDS011;11299;43.202;27.920;2023-04-02T04:22:21;5.75;;;4.20;;
22260;SDS011;11299;43.202;27.920;2023-04-02T04:24:59;4.07;;;3.58;;
22260;SDS011;11299;43.202;27.920;2023-04-02T04:27:45;4.88;;;3.53;;
22260;SDS011;11299;43.202;27.920;2023-04-02T04:30:55;4.53;;;3.50;;
22260;SDS011;11299;43.202;27.920;2023-04-02T04:33:25;7.13;;;4.32;;
22260;SDS011;11299;43.202;27.920;2023-04-02T04:36:03;10.15;;;4.50;;
22260;SDS011;11299;43.202;27.920;2023-04-02T04:38:32;7.88;;;3.83;;
22260;SDS011;11299;43.202;27.920;2023-04-02T04:41:15;7.25;;;4.50;;
22260;SDS011;11299;43.202;27.920;2023-04-02T04:44:05;9.25;;;4.88;;
22260;SDS011;11299;43.202;27.920;2023-04-02T04:49:46;7.47;;;5.28;;
22260;SDS011;11299;43.202;27.920;2023-04-02T04:52:23;9.88;;;6.78;;
22260;SDS011;11299;43.202;27.920;2023-04-02T04:54:56;9.07;;;5.80;;
22260;SDS011;11299;43.202;27.920;2023-04-02T04:59:55;7.53;;;4.82;;
22260;SDS011;11299;43.202;27.920;2023-04-02T05:02:26;8.07;;;5.07;;
22260;SDS011;11299;43.202;27.920;2023-04-02T05:04:57;4.05;;;3.30;;
22260;SDS011;11299;43.202;27.920;2023-04-02T05:07:26;3.28;;;2.80;;
22260;SDS011;11299;43.202;27.920;2023-04-02T05:12:42;2.95;;;2.65;;
22260;SDS011;11299;43.202;27.920;2023-04-02T05:15:25;3.75;;;2.92;;
22260;SDS011;11299;43.202;27.920;2023-04-02T05:20:33;4.70;;;2.78;;
22260;SDS011;11299;43.202;27.920;2023-04-02T05:23:09;3.53;;;2.58;;
22260;SDS011;11299;43.202;27.920;2023-04-02T05:25:52;2.95;;;2.65;;
22260;SDS011;11299;43.202;27.920;2023-04-02T05:31:09;3.03;;;2.40;;
22260;SDS011;11299;43.202;27.920;2023-04-02T05:33:39;5.00;;;2.92;;
22260;SDS011;11299;43.202;27.920;2023-04-02T05:36:11;4.55;;;2.55;;
22260;SDS011;11299;43.202;27.920;2023-04-02T05:38:45;4.68;;;2.33;;
22260;SDS011;11299;43.202;27.920;2023-04-02T05:46:43;3.17;;;2.22;;
22260;SDS011;11299;43.202;27.920;2023-04-02T05:51:45;2.92;;;1.95;;
22260;SDS011;11299;43.202;27.920;2023-04-02T05:54:18;3.53;;;2.60;;
22260;SDS011;11299;43.202;27.920;2023-04-02T05:56:54;4.60;;;2.60;;
22260;SDS011;11299;43.202;27.920;2023-04-02T05:59:46;3.80;;;2.22;;
22260;SDS011;11299;43.202;27.920;2023-04-02T06:02:38;5.90;;;3.08;;
22260;SDS011;11299;43.202;27.920;2023-04-02T06:05:25;4.18;;;2.05;;
22260;SDS011;11299;43.202;27.920;2023-04-02T06:08:00;6.47;;;2.75;;
22260;SDS011;11299;43.202;27.920;2023-04-02T06:10:41;5.85;;;2.45;;
22260;SDS011;11299;43.202;27.920;2023-04-02T06:13:15;3.70;;;2.50;;
22260;SDS011;11299;43.202;27.920;2023-04-02T06:15:42;6.07;;;2.50;;
22260;SDS011;11299;43.202;27.920;2023-04-02T06:18:13;4.57;;;2.40;;
22260;SDS011;11299;43.202;27.920;2023-04-02T06:20:41;3.13;;;2.28;;
22260;SDS011;11299;43.202;27.920;2023-04-02T06:23:21;4.50;;;2.90;;
22260;SDS011;11299;43.202;27.920;2023-04-02T06:26:05;3.80;;;2.95;;
22260;SDS011;11299;43.202;27.920;2023-04-02T06:31:13;2.85;;;2.15;;
22260;SDS011;11299;43.202;27.920;2023-04-02T06:33:49;3.30;;;2.58;;
22260;SDS011;11299;43.202;27.920;2023-04-02T06:36:17;5.53;;;2.60;;
22260;SDS011;11299;43.202;27.920;2023-04-02T06:38:43;4.30;;;2.20;;
22260;SDS011;11299;43.202;27.920;2023-04-02T06:41:15;4.03;;;2.30;;
22260;SDS011;11299;43.202;27.920;2023-04-02T06:43:52;5.50;;;2.80;;
22260;SDS011;11299;43.202;27.920;2023-04-02T06:46:25;4.38;;;2.20;;
22260;SDS011;11299;43.202;27.920;2023-04-02T06:49:01;4.55;;;2.10;;
22260;SDS011;11299;43.202;27.920;2023-04-02T06:51:38;5.45;;;2.58;;
22260;SDS011;11299;43.202;27.920;2023-04-02T06:54:11;3.25;;;1.88;;
22260;SDS011;11299;43.202;27.920;2023-04-02T06:56:41;5.88;;;1.90;;
22260;SDS011;11299;43.202;27.920;2023-04-02T06:59:09;3.33;;;1.60;;
22260;SDS011;11299;43.202;27.920;2023-04-02T07:01:47;4.15;;;1.98;;
22260;SDS011;11299;43.202;27.920;2023-04-02T07:04:17;4.38;;;1.77;;
22260;SDS011;11299;43.202;27.920;2023-04-02T07:06:44;3.33;;;2.08;;
22260;SDS011;11299;43.202;27.920;2023-04-02T07:09:09;4.45;;;1.92;;
22260;SDS011;11299;43.202;27.920;2023-04-02T07:11:35;2.50;;;1.75;;
22260;SDS011;11299;43.202;27.920;2023-04-02T07:14:01;3.53;;;2.10;;
22260;SDS011;11299;43.202;27.920;2023-04-02T07:16:28;2.85;;;1.98;;
22260;SDS011;11299;43.202;27.920;2023-04-02T07:18:55;4.07;;;2.50;;
22260;SDS011;11299;43.202;27.920;2023-04-02T07:21:23;2.80;;;1.75;;
22260;SDS011;11299;43.202;27.920;2023-04-02T07:23:49;2.20;;;1.85;;
22260;SDS011;11299;43.202;27.920;2023-04-02T07:26:16;3.83;;;2.05;;
22260;SDS011;11299;43.202;27.920;2023-04-02T07:28:43;4.43;;;1.75;;
22260;SDS011;11299;43.202;27.920;2023-04-02T07:31:22;2.90;;;1.80;;
22260;SDS011;11299;43.202;27.920;2023-04-02T07:33:51;5.65;;;1.80;;
22260;SDS011;11299;43.202;27.920;2023-04-02T07:36:19;3.42;;;1.67;;
22260;SDS011;11299;43.202;27.920;2023-04-02T07:38:46;3.05;;;1.70;;
22260;SDS011;11299;43.202;27.920;2023-04-02T07:41:12;2.88;;;1.73;;
22260;SDS011;11299;43.202;27.920;2023-04-02T07:43:38;2.65;;;1.55;;
22260;SDS011;11299;43.202;27.920;2023-04-02T07:46:05;1.95;;;1.30;;
22260;SDS011;11299;43.202;27.920;2023-04-02T07:48:31;3.92;;;1.50;;
22260;SDS011;11299;43.202;27.920;2023-04-02T07:50:57;4.60;;;1.65;;
22260;SDS011;11299;43.202;27.920;2023-04-02T07:53:33;3.65;;;1.95;;
22260;SDS011;11299;43.202;27.920;2023-04-02T07:56:02;2.72;;;1.45;;
22260;SDS011;11299;43.202;27.920;2023-04-02T07:58:29;3.20;;;1.80;;
22260;SDS011;11299;43.202;27.920;2023-04-02T08:00:57;4.82;;;2.38;;
22260;SDS011;11299;43.202;27.920;2023-04-02T08:03:24;2.00;;;1.80;;
22260;SDS011;11299;43.202;27.920;2023-04-02T08:05:55;2.95;;;1.90;;
22260;SDS011;11299;43.202;27.920;2023-04-02T08:08:22;4.10;;;1.90;;
22260;SDS011;11299;43.202;27.920;2023-04-02T08:10:49;1.90;;;1.65;;
22260;SDS011;11299;43.202;27.920;2023-04-02T08:13:15;2.78;;;2.03;;
22260;SDS011;11299;43.202;27.920;2023-04-02T08:15:42;4.53;;;1.85;;
22260;SDS011;11299;43.202;27.920;2023-04-02T08:18:08;3.28;;;2.08;;
22260;SDS011;11299;43.202;27.920;2023-04-02T08:20:34;3.03;;;2.20;;
22260;SDS011;11299;43.202;27.920;2023-04-02T08:23:00;2.75;;;1.70;;
22260;SDS011;11299;43.202;27.920;2023-04-02T08:25:26;4.15;;;2.10;;
22260;SDS011;11299;43.202;27.920;2023-04-02T08:27:52;4.05;;;1.95;;
22260;SDS011;11299;43.202;27.920;2023-04-02T08:30:17;2.65;;;2.13;;
22260;SDS011;11299;43.202;27.920;2023-04-02T08:32:43;4.35;;;1.55;;
22260;SDS011;11299;43.202;27.920;2023-04-02T08:35:10;2.28;;;1.77;;
22260;SDS011;11299;43.202;27.920;2023-04-02T08:37:37;3.67;;;1.60;;
22260;SDS011;11299;43.202;27.920;2023-04-02T08:40:03;4.63;;;2.45;;
22260;SDS011;11299;43.202;27.920;2023-04-02T08:42:42;5.57;;;2.70;;
22260;SDS011;11299;43.202;27.920;2023-04-02T08:47:57;2.25;;;1.40;;
22260;SDS011;11299;43.202;27.920;2023-04-02T08:50:31;8.60;;;4.40;;
22260;SDS011;11299;43.202;27.920;2023-04-02T08:53:05;8.40;;;4.63;;
22260;SDS011;11299;43.202;27.920;2023-04-02T08:55:56;4.28;;;2.30;;
22260;SDS011;11299;43.202;27.920;2023-04-02T08:58:47;4.50;;;2.67;;
22260;SDS011;11299;43.202;27.920;2023-04-02T09:01:34;4.15;;;2.22;;
22260;SDS011;11299;43.202;27.920;2023-04-02T09:04:12;4.45;;;2.20;;
22260;SDS011;11299;43.202;27.920;2023-04-02T09:06:40;2.60;;;1.85;;
22260;SDS011;11299;43.202;27.920;2023-04-02T09:09:07;2.38;;;2.08;;
22260;SDS011;11299;43.202;27.920;2023-04-02T09:14:15;2.45;;;1.70;;
22260;SDS011;11299;43.202;27.920;2023-04-02T09:16:50;2.47;;;1.77;;
22260;SDS011;11299;43.202;27.920;2023-04-02T09:22:06;2.22;;;1.60;;
22260;SDS011;11299;43.202;27.920;2023-04-02T09:24:37;3.05;;;1.40;;
22260;SDS011;11299;43.202;27.920;2023-04-02T09:27:03;3.95;;;1.80;;
22260;SDS011;11299;43.202;27.920;2023-04-02T09:30:05;5.00;;;2.00;;
22260;SDS011;11299;43.202;27.920;2023-04-02T09:32:56;2.38;;;1.75;;
22260;SDS011;11299;43.202;27.920;2023-04-02T09:35:33;1.95;;;1.70;;
22260;SDS011;11299;43.202;27.920;2023-04-02T09:38:20;4.97;;;2.53;;
22260;SDS011;11299;43.202;27.920;2023-04-02T09:43:15;3.20;;;1.83;;
22260;SDS011;11299;43.202;27.920;2023-04-02T09:45:43;2.85;;;1.70;;
22260;SDS011;11299;43.202;27.920;2023-04-02T09:48:26;3.65;;;1.98;;
22260;SDS011;11299;43.202;27.920;2023-04-02T09:51:09;2.08;;;1.83;;
22260;SDS011;11299;43.202;27.920;2023-04-02T09:53:39;3.65;;;1.70;;
22260;SDS011;11299;43.202;27.920;2023-04-02T09:56:22;4.50;;;1.65;;
22260;SDS011;11299;43.202;27.920;2023-04-02T10:03:58;2.13;;;1.52;;
22260;SDS011;11299;43.202;27.920;2023-04-02T10:06:25;2.53;;;1.77;;
22260;SDS011;11299;43.202;27.920;2023-04-02T10:08:53;3.42;;;2.20;;
22260;SDS011;11299;43.202;27.920;2023-04-02T10:11:20;3.47;;;1.35;;
22260;SDS011;11299;43.202;27.920;2023-04-02T10:14:04;3.50;;;1.65;;
22260;SDS011;11299;43.202;27.920;2023-04-02T10:22:02;2.38;;;1.40;;
22260;SDS011;11299;43.202;27.920;2023-04-02T10:24:33;4.85;;;1.88;;
22260;SDS011;11299;43.202;27.920;2023-04-02T10:29:55;3.03;;;1.08;;
22260;SDS011;11299;43.202;27.920;2023-04-02T10:52:19;3.35;;;1.63;;
22260;SDS011;11299;43.202;27.920;2023-04-02T10:55:20;2.60;;;1.75;;
22260;SDS011;11299;43.202;27.920;2023-04-02T10:58:01;2.40;;;1.67;;
22260;SDS011;11299;43.202;27.920;2023-04-02T11:00:33;3.38;;;1.70;;
22260;SDS011;11299;43.202;27.920;2023-04-02T11:03:13;2.10;;;1.33;;
22260;SDS011;11299;43.202;27.920;2023-04-02T11:08:15;3.63;;;1.83;;
22260;SDS011;11299;43.202;27.920;2023-04-02T11:11:02;3.83;;;1.83;;
22260;SDS011;11299;43.202;27.920;2023-04-02T11:13:42;3.10;;;2.05;;
22260;SDS011;11299;43.202;27.920;2023-04-02T11:16:11;4.10;;;2.35;;
22260;SDS011;11299;43.202;27.920;2023-04-02T11:18:39;3.50;;;1.60;;
22260;SDS011;11299;43.202;27.920;2023-04-02T11:21:06;2.97;;;1.88;;
22260;SDS011;11299;43.202;27.920;2023-04-02T11:23:33;3.17;;;1.63;;
22260;SDS011;11299;43.202;27.920;2023-04-02T11:31:43;1.95;;;1.30;;
22260;SDS011;11299;43.202;27.920;2023-04-02T11:34:14;1.55;;;0.90;;
22260;SDS011;11299;43.202;27.920;2023-04-02T11:37:00;1.77;;;1.30;;
22260;SDS011;11299;43.202;27.920;2023-04-02T11:40:01;2.58;;;1.55;;
22260;SDS011;11299;43.202;27.920;2023-04-02T11:42:33;6.80;;;1.63;;
22260;SDS011;11299;43.202;27.920;2023-04-02T11:45:50;2.63;;;1.10;;
22260;SDS011;11299;43.202;27.920;2023-04-02T11:50:28;2.58;;;1.10;;
22260;SDS011;11299;43.202;27.920;2023-04-02T11:52:53;2.40;;;0.90;;
22260;SDS011;11299;43.202;27.920;2023-04-02T11:55:33;1.48;;;1.10;;
22260;SDS011;11299;43.202;27.920;2023-04-02T11:58:01;1.17;;;1.05;;
22260;SDS011;11299;43.202;27.920;2023-04-02T12:06:22;1.85;;;1.20;;
22260;SDS011;11299;43.202;27.920;2023-04-02T12:11:57;1.95;;;1.02;;
22260;SDS011;11299;43.202;27.920;2023-04-02T12:17:04;1.77;;;0.88;;
22260;SDS011;11299;43.202;27.920;2023-04-02T12:19:50;1.33;;;0.80;;
22260;SDS011;11299;43.202;27.920;2023-04-02T12:22:19;2.13;;;0.95;;
22260;SDS011;11299;43.202;27.920;2023-04-02T12:24:47;1.35;;;1.00;;
22260;SDS011;11299;43.202;27.920;2023-04-02T12:27:18;3.05;;;1.02;;
22260;SDS011;11299;43.202;27.920;2023-04-02T12:29:47;1.30;;;0.90;;
22260;SDS011;11299;43.202;27.920;2023-04-02T12:34:48;2.47;;;1.02;;
22260;SDS011;11299;43.202;27.920;2023-04-02T12:37:21;2.42;;;1.00;;
22260;SDS011;11299;43.202;27.920;2023-04-02T12:39:56;1.90;;;1.25;;
22260;SDS011;11299;43.202;27.920;2023-04-02T12:42:32;2.92;;;1.73;;
22260;SDS011;11299;43.202;27.920;2023-04-02T12:45:02;2.22;;;1.10;;
22260;SDS011;11299;43.202;27.920;2023-04-02T12:47:30;3.03;;;1.50;;
22260;SDS011;11299;43.202;27.920;2023-04-02T12:49:58;3.72;;;1.48;;
22260;SDS011;11299;43.202;27.920;2023-04-02T12:52:26;2.63;;;1.30;;
22260;SDS011;11299;43.202;27.920;2023-04-02T12:54:57;5.10;;;1.50;;
22260;SDS011;11299;43.202;27.920;2023-04-02T12:59:50;2.63;;;1.50;;
22260;SDS011;11299;43.202;27.920;2023-04-02T13:02:21;2.45;;;1.50;;
22260;SDS011;11299;43.202;27.920;2023-04-02T13:07:15;2.00;;;1.50;;
22260;SDS011;11299;43.202;27.920;2023-04-02T13:09:46;5.10;;;1.85;;
22260;SDS011;11299;43.202;27.920;2023-04-02T13:15:04;1.90;;;1.27;;
22260;SDS011;11299;43.202;27.920;2023-04-02T13:17:36;2.67;;;1.63;;
22260;SDS011;11299;43.202;27.920;2023-04-02T13:22:53;3.15;;;1.55;;
22260;SDS011;11299;43.202;27.920;2023-04-02T13:25:19;2.22;;;1.42;;
22260;SDS011;11299;43.202;27.920;2023-04-02T13:27:53;5.20;;;1.42;;
22260;SDS011;11299;43.202;27.920;2023-04-02T13:30:21;2.67;;;1.48;;
22260;SDS011;11299;43.202;27.920;2023-04-02T13:32:49;2.30;;;1.30;;
22260;SDS011;11299;43.202;27.920;2023-04-02T13:35:15;1.60;;;1.10;;
22260;SDS011;11299;43.202;27.920;2023-04-02T13:37:40;2.03;;;1.13;;
22260;SDS011;11299;43.202;27.920;2023-04-02T13:40:06;2.72;;;1.20;;
22260;SDS011;11299;43.202;27.920;2023-04-02T13:42:33;1.92;;;1.10;;
22260;SDS011;11299;43.202;27.920;2023-04-02T13:44:58;2.00;;;1.30;;
22260;SDS011;11299;43.202;27.920;2023-04-02T13:47:24;2.90;;;1.45;;
22260;SDS011;11299;43.202;27.920;2023-04-02T13:49:50;1.73;;;1.30;;
22260;SDS011;11299;43.202;27.920;2023-04-02T13:52:15;2.30;;;1.40;;
22260;SDS011;11299;43.202;27.920;2023-04-02T13:54:48;1.95;;;1.10;;
22260;SDS011;11299;43.202;27.920;2023-04-02T13:57:18;1.55;;;1.20;;
22260;SDS011;11299;43.202;27.920;2023-04-02T13:59:43;3.83;;;1.45;;
22260;SDS011;11299;43.202;27.920;2023-04-02T14:02:11;4.22;;;1.20;;
22260;SDS011;11299;43.202;27.920;2023-04-02T14:04:44;1.75;;;1.20;;
22260;SDS011;11299;43.202;27.920;2023-04-02T14:09:59;2.47;;;1.20;;
22260;SDS011;11299;43.202;27.920;2023-04-02T14:15:50;1.65;;;1.20;;
22260;SDS011;11299;43.202;27.920;2023-04-02T14:26:36;2.70;;;1.77;;
22260;SDS011;11299;43.202;27.920;2023-04-02T14:29:13;3.13;;;1.88;;
22260;SDS011;11299;43.202;27.920;2023-04-02T14:48:11;2.20;;;1.52;;
22260;SDS011;11299;43.202;27.920;2023-04-02T14:50:55;1.73;;;1.40;;
22260;SDS011;11299;43.202;27.920;2023-04-02T14:53:42;4.15;;;1.73;;
22260;SDS011;11299;43.202;27.920;2023-04-02T14:56:29;1.88;;;1.45;;
22260;SDS011;11299;43.202;27.920;2023-04-02T14:59:13;3.67;;;1.83;;
22260;SDS011;11299;43.202;27.920;2023-04-02T15:01:42;3.45;;;1.63;;
22260;SDS011;11299;43.202;27.920;2023-04-02T15:04:12;2.53;;;1.80;;
22260;SDS011;11299;43.202;27.920;2023-04-02T15:06:43;3.33;;;1.90;;
22260;SDS011;11299;43.202;27.920;2023-04-02T15:09:14;5.45;;;1.73;;
22260;SDS011;11299;43.202;27.920;2023-04-02T15:11:46;3.17;;;1.83;;
22260;SDS011;11299;43.202;27.920;2023-04-02T15:14:20;3.20;;;1.73;;
22260;SDS011;11299;43.202;27.920;2023-04-02T15:16:52;2.40;;;1.90;;
22260;SDS011;11299;43.202;27.920;2023-04-02T15:19:18;2.53;;;1.80;;
22260;SDS011;11299;43.202;27.920;2023-04-02T15:38:07;2.58;;;1.70;;
22260;SDS011;11299;43.202;27.920;2023-04-02T15:48:42;3.75;;;1.70;;
22260;SDS011;11299;43.202;27.920;2023-04-02T16:02:31;2.92;;;1.80;;
22260;SDS011;11299;43.202;27.920;2023-04-02T16:05:16;4.55;;;1.80;;
22260;SDS011;11299;43.202;27.920;2023-04-02T16:12:44;5.25;;;2.15;;
22260;SDS011;11299;43.202;27.920;2023-04-02T16:15:16;3.20;;;2.20;;
22260;SDS011;11299;43.202;27.920;2023-04-02T16:17:56;3.83;;;2.20;;
22260;SDS011;11299;43.202;27.920;2023-04-02T16:20:35;2.42;;;1.88;;
22260;SDS011;11299;43.202;27.920;2023-04-02T16:33:59;6.88;;;2.75;;
22260;SDS011;11299;43.202;27.920;2023-04-02T16:45:29;2.67;;;1.48;;
22260;SDS011;11299;43.202;27.920;2023-04-02T16:53:21;3.13;;;1.58;;
22260;SDS011;11299;43.202;27.920;2023-04-02T16:58:53;2.80;;;1.20;;
22260;SDS011;11299;43.202;27.920;2023-04-02T17:09:42;2.53;;;1.55;;
22260;SDS011;11299;43.202;27.920;2023-04-02T17:12:33;4.45;;;1.80;;
22260;SDS011;11299;43.202;27.920;2023-04-02T17:17:45;3.55;;;1.98;;
22260;SDS011;11299;43.202;27.920;2023-04-02T17:20:16;13.73;;;12.43;;
22260;SDS011;11299;43.202;27.920;2023-04-02T17:22:46;10.13;;;6.90;;
22260;SDS011;11299;43.202;27.920;2023-04-02T17:25:16;6.90;;;4.38;;
22260;SDS011;11299;43.202;27.920;2023-04-02T17:27:47;7.45;;;2.42;;
22260;SDS011;11299;43.202;27.920;2023-04-02T17:32:46;2.85;;;2.60;;
22260;SDS011;11299;43.202;27.920;2023-04-02T17:35:16;3.85;;;2.45;;
22260;SDS011;11299;43.202;27.920;2023-04-02T17:37:49;3.35;;;2.30;;
22260;SDS011;11299;43.202;27.920;2023-04-02T17:49:40;8.25;;;3.95;;
22260;SDS011;11299;43.202;27.920;2023-04-02T17:52:07;7.10;;;4.47;;
22260;SDS011;11299;43.202;27.920;2023-04-02T17:57:45;6.45;;;3.38;;
22260;SDS011;11299;43.202;27.920;2023-04-02T18:03:22;4.07;;;2.40;;
22260;SDS011;11299;43.202;27.920;2023-04-02T18:14:08;3.47;;;2.80;;
22260;SDS011;11299;43.202;27.920;2023-04-02T18:20:02;6.32;;;4.43;;
22260;SDS011;11299;43.202;27.920;2023-04-02T18:25:38;3.85;;;3.00;;
22260;SDS011;11299;43.202;27.920;2023-04-02T18:28:40;5.07;;;3.22;;
22260;SDS011;11299;43.202;27.920;2023-04-02T18:37:22;4.25;;;2.45;;
22260;SDS011;11299;43.202;27.920;2023-04-02T18:43:01;4.47;;;2.33;;
22260;SDS011;11299;43.202;27.920;2023-04-02T18:45:48;4.97;;;3.10;;
22260;SDS011;11299;43.202;27.920;2023-04-02T18:48:36;6.53;;;3.35;;
22260;SDS011;11299;43.202;27.920;2023-04-02T18:51:24;6.38;;;3.85;;
22260;SDS011;11299;43.202;27.920;2023-04-02T18:54:05;7.78;;;3.83;;
22260;SDS011;11299;43.202;27.920;2023-04-02T18:56:46;7.35;;;3.90;;
22260;SDS011;11299;43.202;27.920;2023-04-02T19:01:55;5.03;;;3.75;;
22260;SDS011;11299;43.202;27.920;2023-04-02T19:04:29;6.13;;;4.00;;
22260;SDS011;11299;43.202;27.920;2023-04-02T19:07:04;7.55;;;3.72;;
22260;SDS011;11299;43.202;27.920;2023-04-02T19:09:37;5.45;;;3.33;;
22260;SDS011;11299;43.202;27.920;2023-04-02T19:12:15;5.45;;;2.92;;
22260;SDS011;11299;43.202;27.920;2023-04-02T19:14:46;5.50;;;3.33;;
22260;SDS011;11299;43.202;27.920;2023-04-02T19:22:58;4.18;;;2.10;;
22260;SDS011;11299;43.202;27.920;2023-04-02T19:25:48;3.80;;;1.90;;
22260;SDS011;11299;43.202;27.920;2023-04-02T19:34:22;9.40;;;4.35;;
22260;SDS011;11299;43.202;27.920;2023-04-02T19:37:15;6.38;;;4.70;;
22260;SDS011;11299;43.202;27.920;2023-04-02T19:42:53;5.95;;;2.97;;
22260;SDS011;11299;43.202;27.920;2023-04-02T19:45:22;7.25;;;3.95;;
22260;SDS011;11299;43.202;27.920;2023-04-02T19:47:52;7.63;;;4.22;;
22260;SDS011;11299;43.202;27.920;2023-04-02T19:50:19;7.18;;;3.78;;
22260;SDS011;11299;43.202;27.920;2023-04-02T19:52:45;8.55;;;4.30;;
22260;SDS011;11299;43.202;27.920;2023-04-02T19:55:10;10.10;;;4.68;;
22260;SDS011;11299;43.202;27.920;2023-04-02T19:57:36;10.75;;;5.78;;
22260;SDS011;11299;43.202;27.920;2023-04-02T20:00:02;9.63;;;5.97;;
22260;SDS011;11299;43.202;27.920;2023-04-02T20:02:27;8.40;;;5.53;;
22260;SDS011;11299;43.202;27.920;2023-04-02T20:04:53;9.52;;;6.55;;
22260;SDS011;11299;43.202;27.920;2023-04-02T20:07:20;14.38;;;6.80;;
22260;SDS011;11299;43.202;27.920;2023-04-02T20:09:46;10.85;;;6.68;;
22260;SDS011;11299;43.202;27.920;2023-04-02T20:12:11;8.23;;;6.05;;
22260;SDS011;11299;43.202;27.920;2023-04-02T20:14:37;9.20;;;5.78;;
22260;SDS011;11299;43.202;27.920;2023-04-02T20:17:02;8.98;;;6.10;;
22260;SDS011;11299;43.202;27.920;2023-04-02T20:19:28;8.80;;;5.90;;
22260;SDS011;11299;43.202;27.920;2023-04-02T20:21:53;10.00;;;6.43;;
22260;SDS011;11299;43.202;27.920;2023-04-02T20:24:20;10.98;;;5.88;;
22260;SDS011;11299;43.202;27.920;2023-04-02T20:26:45;8.55;;;6.07;;
22260;SDS011;11299;43.202;27.920;2023-04-02T20:29:11;11.13;;;5.68;;
22260;SDS011;11299;43.202;27.920;2023-04-02T20:31:36;9.30;;;5.93;;
22260;SDS011;11299;43.202;27.920;2023-04-02T20:34:02;7.28;;;5.55;;